createdAt,value
2022-12-11T07:26:16.461Z,18.57
2022-12-11T07:26:19.941Z,18.89
2022-12-11T07:27:46.787Z,18.91
2022-12-11T07:28:39.401Z,18.94
2022-12-11T07:29:52.838Z,18.95
2022-12-11T07:31:05.318Z,18.98
2022-12-11T07:32:09.492Z,18.96
2022-12-11T07:33:22.041Z,18.91
2022-12-11T07:34:35.865Z,18.91
2022-12-11T07:35:38.527Z,18.89
2022-12-11T07:36:51.841Z,18.88
2022-12-11T07:38:04.247Z,18.87
2022-12-11T07:39:17.352Z,18.84
2022-12-11T07:40:19.839Z,18.8
2022-12-11T07:41:33.484Z,18.8
2022-12-11T07:42:46.386Z,18.8
2022-12-11T07:43:50.323Z,18.8
2022-12-11T07:45:02.773Z,18.77
2022-12-11T07:46:16.352Z,18.74
2022-12-11T07:47:18.945Z,18.77
2022-12-11T07:48:32.342Z,18.75
2022-12-11T07:49:44.766Z,18.74
2022-12-11T07:50:57.843Z,18.75
2022-12-11T07:52:00.662Z,18.75
2022-12-11T07:53:13.825Z,18.75
2022-12-11T07:54:26.286Z,18.74
2022-12-11T07:55:29.838Z,18.74
2022-12-11T07:56:43.895Z,18.74
2022-12-11T07:57:57.367Z,18.74
2022-12-11T07:58:59.891Z,18.73
2022-12-11T08:00:13.341Z,18.73
2022-12-11T08:01:25.827Z,18.73
2022-12-11T08:02:35.440Z,18.69
2022-12-11T08:03:39.698Z,18.71
2022-12-11T08:04:52.866Z,18.65
2022-12-11T08:06:05.393Z,18.6
2022-12-11T08:07:08.821Z,18.48
2022-12-11T08:08:21.366Z,18.34
2022-12-11T08:09:34.815Z,18.22
2022-12-11T08:10:47.380Z,18.13
2022-12-11T08:11:50.848Z,17.99
2022-12-11T08:13:03.459Z,17.89
2022-12-11T08:14:19.333Z,17.76
2022-12-11T08:15:22.004Z,17.66
2022-12-11T08:16:35.349Z,17.55
2022-12-11T08:17:48.054Z,17.46
2022-12-11T08:18:51.812Z,17.41
2022-12-11T08:20:14.560Z,17.34
2022-12-11T08:21:18.361Z,17.27
2022-12-11T08:22:21.071Z,17.21
2022-12-11T08:23:34.340Z,17.17
2022-12-11T08:24:47.064Z,17.11
2022-12-11T08:25:50.844Z,17.07
2022-12-11T08:27:03.549Z,17.04
2022-12-11T08:28:17.328Z,16.97
2022-12-11T08:29:20.067Z,16.93
2022-12-11T08:30:33.981Z,16.93
2022-12-11T08:31:46.757Z,16.91
2022-12-11T08:32:50.483Z,16.85
2022-12-11T08:34:03.208Z,16.81
2022-12-11T08:35:16.852Z,16.81
2022-12-11T08:36:29.622Z,16.78
2022-12-11T08:37:33.539Z,16.78
2022-12-11T08:38:46.556Z,16.77
2022-12-11T08:40:00.321Z,16.76
2022-12-11T08:41:03.145Z,16.73
2022-12-11T08:42:26.862Z,16.71
2022-12-11T08:43:29.668Z,16.7
2022-12-11T08:44:33.364Z,16.7
2022-12-11T08:46:06.287Z,16.67
2022-12-11T08:47:30.385Z,16.67
2022-12-11T08:48:03.304Z,16.67
2022-12-11T08:49:16.024Z,16.67
2022-12-11T08:50:29.410Z,16.67
2022-12-11T08:51:32.286Z,16.69
2022-12-11T08:52:45.841Z,16.7
2022-12-11T08:53:58.818Z,16.69
2022-12-11T08:55:12.690Z,16.69
2022-12-11T08:56:15.776Z,16.69
2022-12-11T08:57:39.386Z,16.67
2022-12-11T08:58:42.780Z,16.66
2022-12-11T08:59:46.667Z,16.64
2022-12-11T09:00:59.620Z,16.66
2022-12-11T09:02:13.481Z,16.63
2022-12-11T09:03:16.402Z,16.64
2022-12-11T09:04:29.917Z,16.6
2022-12-11T09:05:42.827Z,16.63
2022-12-11T09:06:46.360Z,16.61
2022-12-11T09:07:59.167Z,16.61
2022-12-11T09:09:12.885Z,16.6
2022-12-11T09:10:15.819Z,16.6
2022-12-11T09:11:29.874Z,16.59
2022-12-11T09:12:42.669Z,16.61
2022-12-11T09:13:46.454Z,16.6
2022-12-11T09:14:59.268Z,16.56
2022-12-11T09:16:12.941Z,16.56
2022-12-11T09:17:16.000Z,16.56
2022-12-11T09:18:29.378Z,16.53
2022-12-11T09:19:42.151Z,16.54
2022-12-11T09:20:56.027Z,16.54
2022-12-11T09:21:58.907Z,16.53
2022-12-11T09:23:12.389Z,16.53
2022-12-11T09:24:25.165Z,16.54
2022-12-11T09:25:28.933Z,16.52
2022-12-11T09:26:41.847Z,16.52
2022-12-11T09:27:55.375Z,16.52
2022-12-11T09:28:58.358Z,16.49
2022-12-11T09:30:11.902Z,16.52
2022-12-11T09:31:24.784Z,16.52
2022-12-11T09:32:28.868Z,16.52
2022-12-11T09:33:41.681Z,16.5
2022-12-11T09:34:55.360Z,16.49
2022-12-11T09:35:58.338Z,16.5
2022-12-11T09:37:12.394Z,16.5
2022-12-11T09:38:25.225Z,16.49
2022-12-11T09:39:28.908Z,16.47
2022-12-11T09:40:41.732Z,16.5
2022-12-11T09:42:05.386Z,16.49
2022-12-11T09:42:58.327Z,16.49
2022-12-11T09:44:11.869Z,16.49
2022-12-11T09:45:24.674Z,16.49
2022-12-11T09:46:38.424Z,16.47
2022-12-11T09:47:41.378Z,16.47
2022-12-11T09:48:57.361Z,16.45
2022-12-11T09:50:00.201Z,16.49
2022-12-11T09:51:13.905Z,16.49
2022-12-11T09:52:36.685Z,16.47
2022-12-11T09:53:34.143Z,16.49
2022-12-11T09:54:47.295Z,16.47
2022-12-11T09:55:50.855Z,16.47
2022-12-11T09:57:03.754Z,16.49
2022-12-11T09:58:17.397Z,16.47
2022-12-11T09:59:20.459Z,16.49
2022-12-11T10:00:33.884Z,16.49
2022-12-11T10:01:46.765Z,16.5
2022-12-11T10:03:00.424Z,16.49
2022-12-11T10:04:03.286Z,16.46
2022-12-11T10:05:19.407Z,16.45
2022-12-11T10:06:22.852Z,16.47
2022-12-11T10:07:36.386Z,16.45
2022-12-11T10:08:49.186Z,16.47
2022-12-11T10:09:52.912Z,16.47
2022-12-11T10:11:05.784Z,16.46
2022-12-11T10:12:19.386Z,16.46
2022-12-11T10:13:22.294Z,16.47
2022-12-11T10:14:35.944Z,16.43
2022-12-11T10:15:48.988Z,16.45
2022-12-11T10:16:52.917Z,16.42
2022-12-11T10:18:05.733Z,16.46
2022-12-11T10:19:19.920Z,16.45
2022-12-11T10:20:22.845Z,16.43
2022-12-11T10:21:36.406Z,16.45
2022-12-11T10:22:49.184Z,16.56
2022-12-11T10:24:02.903Z,16.67
2022-12-11T10:25:12.540Z,16.78
2022-12-11T10:26:16.400Z,16.9
2022-12-11T10:27:29.033Z,17.03
2022-12-11T10:28:42.930Z,17.11
2022-12-11T10:29:45.750Z,17.24
2022-12-11T10:30:59.423Z,17.34
2022-12-11T10:32:12.119Z,17.42
2022-12-11T10:33:15.405Z,17.52
2022-12-11T10:34:27.971Z,17.59
2022-12-11T10:35:41.376Z,17.69
2022-12-11T10:36:58.781Z,17.75
2022-12-11T10:38:03.884Z,17.79
2022-12-11T10:39:06.489Z,17.86
2022-12-11T10:40:19.916Z,17.93
2022-12-11T10:41:32.457Z,17.96
2022-12-11T10:42:38.904Z,17.99
2022-12-11T10:57:02.559Z,18.03
2022-12-11T10:59:05.600Z,19.01
2022-12-11T11:01:55.535Z,19.33
2022-12-11T11:02:48.214Z,19.4
2022-12-11T11:04:50.922Z,19.47
2022-12-11T11:04:54.007Z,19.5
2022-12-11T11:06:06.308Z,19.49
2022-12-11T11:07:10.397Z,19.47
2022-12-11T11:08:22.912Z,19.46
2022-12-11T11:09:36.411Z,19.45
2022-12-11T11:10:39.070Z,19.4
2022-12-11T11:11:54.070Z,19.3
2022-12-11T11:13:06.620Z,19.26
2022-12-11T11:16:59.694Z,19.2
2022-12-11T11:17:03.554Z,19.12
2022-12-11T11:18:36.292Z,19.09
2022-12-11T11:19:26.533Z,19.11
2022-12-11T11:24:00.461Z,19.08
2022-12-11T11:28:41.907Z,19.16
2022-12-11T11:28:45.033Z,19.36
2022-12-11T11:29:17.795Z,19.38
2022-12-11T11:30:30.024Z,19.35
2022-12-11T11:31:42.934Z,19.38
2022-12-11T11:32:45.532Z,19.32
2022-12-11T11:33:58.400Z,19.27
2022-12-11T11:35:10.941Z,19.17
2022-12-11T11:36:24.387Z,19.11
2022-12-11T11:37:26.855Z,19.02
2022-12-11T11:38:40.411Z,18.81
2022-12-11T11:39:52.817Z,18.48
2022-12-11T11:41:02.461Z,18.26
2022-12-11T11:42:07.607Z,18.02
2022-12-11T11:43:20.897Z,17.73
2022-12-11T11:44:33.495Z,17.49
2022-12-11T11:45:36.939Z,17.22
2022-12-11T11:46:49.530Z,17.01
2022-12-11T11:48:07.742Z,16.85
2022-12-11T11:49:13.796Z,16.77
2022-12-11T12:14:56.190Z,16.76
2022-12-11T12:14:59.566Z,18.78
2022-12-11T12:16:43.787Z,18.89
2022-12-11T12:17:26.603Z,18.77
2022-12-11T12:37:53.268Z,18.91
2022-12-11T12:37:57.502Z,19.36
2022-12-11T12:38:20.302Z,19.39
2022-12-11T12:39:52.571Z,19.4
2022-12-11T12:40:38.164Z,19.39
2022-12-11T12:41:50.782Z,19.39
2022-12-11T12:44:04.032Z,19.35
2022-12-11T12:44:17.525Z,19.32
2022-12-11T12:45:20.067Z,19.26
2022-12-11T12:46:23.525Z,19.22
2022-12-11T12:48:15.665Z,19.17
2022-12-11T12:48:49.492Z,19.15
2022-12-11T12:49:52.002Z,19.08
2022-12-11T12:51:17.025Z,19.02
2022-12-11T12:52:20.618Z,18.98
2022-12-11T12:53:24.474Z,18.91
2022-12-11T12:54:36.896Z,18.89
2022-12-11T12:55:50.027Z,18.82
2022-12-11T12:56:52.685Z,18.77
2022-12-11T12:58:06.103Z,18.69
2022-12-11T12:59:18.640Z,18.69
2022-12-11T13:00:22.121Z,18.65
2022-12-11T13:01:35.073Z,18.58
2022-12-11T13:02:58.999Z,18.57
2022-12-11T13:03:51.750Z,18.54
2022-12-11T13:05:15.500Z,18.48
2022-12-11T13:06:18.130Z,18.45
2022-12-11T13:07:31.585Z,18.47
2022-12-11T13:08:34.226Z,18.45
2022-12-11T13:09:47.991Z,18.4
2022-12-11T13:11:00.653Z,18.37
2022-12-11T13:12:04.144Z,18.38
2022-12-11T13:13:16.676Z,18.37
2022-12-11T13:14:30.061Z,18.36
2022-12-11T13:15:32.785Z,18.33
2022-12-11T13:16:46.102Z,18.33
2022-12-11T13:17:58.723Z,18.3
2022-12-11T13:19:12.017Z,18.29
2022-12-11T13:20:14.687Z,18.29
2022-12-11T13:21:28.537Z,18.27
2022-12-11T13:22:41.170Z,18.27
2022-12-11T13:23:44.988Z,18.26
2022-12-11T13:24:57.709Z,18.26
2022-12-11T13:26:11.027Z,18.24
2022-12-11T13:27:13.578Z,18.24
2022-12-11T13:28:27.012Z,18.26
2022-12-11T13:29:39.506Z,18.24
2022-12-11T13:30:57.145Z,18.24
2022-12-11T13:32:00.046Z,18.26
2022-12-11T13:33:03.501Z,18.23
2022-12-11T13:34:15.970Z,18.24
2022-12-11T13:35:29.517Z,18.24
2022-12-11T13:36:43.129Z,18.23
2022-12-11T13:37:47.030Z,18.24
2022-12-11T13:38:59.528Z,18.23
2022-12-11T13:40:23.040Z,18.22
2022-12-11T13:41:26.163Z,18.23
2022-12-11T13:42:29.530Z,18.24
2022-12-11T13:43:42.033Z,18.24
2022-12-11T13:44:45.542Z,18.26
2022-12-11T13:45:58.118Z,18.26
2022-12-11T13:47:11.693Z,18.26
2022-12-11T13:48:16.934Z,18.3
2022-12-11T13:49:30.521Z,18.26
2022-12-11T13:50:43.026Z,18.29
2022-12-11T13:51:46.516Z,18.29
2022-12-11T13:52:59.013Z,18.3
2022-12-11T13:54:16.520Z,18.31
2022-12-11T13:55:19.754Z,18.33
2022-12-11T13:56:33.013Z,18.3
2022-12-11T13:57:35.598Z,18.29
2022-12-11T13:58:49.025Z,18.31
2022-12-11T14:00:01.552Z,18.31
2022-12-11T14:01:15.142Z,18.31
2022-12-11T14:02:17.972Z,18.33
2022-12-11T14:03:31.530Z,18.33
2022-12-11T14:04:43.971Z,18.33
2022-12-11T14:05:47.530Z,18.31
2022-12-11T14:06:59.920Z,18.31
2022-12-11T14:08:13.081Z,18.33
2022-12-11T14:09:15.862Z,18.33
2022-12-11T14:10:29.022Z,18.33
2022-12-11T14:11:41.527Z,18.31
2022-12-11T14:12:55.068Z,18.33
2022-12-11T14:13:57.701Z,18.34
2022-12-11T14:15:11.208Z,18.3
2022-12-11T14:16:23.965Z,18.3
2022-12-11T14:17:27.520Z,18.3
2022-12-11T14:18:40.079Z,18.31
2022-12-11T14:19:53.521Z,18.33
2022-12-11T14:21:07.097Z,18.33
2022-12-11T14:22:10.505Z,18.34
2022-12-11T14:23:22.990Z,18.34
2022-12-11T14:24:36.497Z,18.33
2022-12-11T14:25:39.144Z,18.36
2022-12-11T14:26:52.559Z,18.34
2022-12-11T14:28:05.063Z,18.4
2022-12-11T14:29:08.557Z,18.4
2022-12-11T14:30:21.052Z,18.38
2022-12-11T14:31:34.549Z,18.38
2022-12-11T14:32:37.373Z,18.43
2022-12-11T14:33:50.552Z,18.43
2022-12-11T14:35:03.007Z,18.44
2022-12-11T14:36:17.002Z,18.44
2022-12-11T14:37:19.689Z,18.45
2022-12-11T14:38:33.026Z,18.45
2022-12-11T14:40:55.218Z,18.47
2022-12-11T14:40:58.531Z,18.48
2022-12-11T14:42:01.094Z,18.51
2022-12-11T14:43:14.570Z,18.54
2022-12-11T14:44:27.003Z,18.57
2022-12-11T14:45:31.171Z,18.6
2022-12-11T14:46:43.716Z,18.64
2022-12-11T14:47:57.061Z,18.64
2022-12-11T14:49:01.292Z,18.64
2022-12-11T14:50:15.048Z,18.65
2022-12-11T14:51:28.487Z,18.66
2022-12-11T14:52:32.069Z,18.68
2022-12-11T14:53:44.476Z,18.69
2022-12-11T14:55:07.598Z,18.69
2022-12-11T14:56:10.192Z,18.66
2022-12-11T14:57:14.020Z,18.64
2022-12-11T14:58:26.597Z,18.54
2022-12-11T14:59:40.057Z,18.44
2022-12-11T15:00:43.745Z,18.31
2022-12-11T15:02:07.132Z,18.23
2022-12-11T15:03:09.845Z,18.09
2022-12-11T15:04:13.548Z,17.97
2022-12-11T15:05:26.214Z,17.87
2022-12-11T15:06:39.653Z,17.78
2022-12-11T15:07:42.396Z,17.66
2022-12-11T15:08:56.535Z,17.56
2022-12-11T15:10:09.502Z,17.48
2022-12-11T15:11:13.541Z,17.39
2022-12-11T15:12:26.371Z,17.34
2022-12-11T15:13:40.073Z,17.24
2022-12-11T15:14:52.888Z,17.18
2022-12-11T15:15:56.519Z,17.12
2022-12-11T15:17:09.932Z,17.05
2022-12-11T15:18:24.092Z,17.01
2022-12-11T15:19:27.225Z,16.98
2022-12-11T15:20:41.031Z,16.94
2022-12-11T15:21:53.992Z,16.91
2022-12-11T15:22:57.558Z,16.87
2022-12-11T15:24:10.474Z,16.82
2022-12-11T15:25:24.032Z,16.78
2022-12-11T15:26:26.856Z,16.77
2022-12-11T15:27:40.900Z,16.74
2022-12-11T15:28:53.805Z,16.76
2022-12-11T15:29:57.527Z,16.7
2022-12-11T15:31:10.467Z,16.69
2022-12-11T15:32:24.575Z,16.69
2022-12-11T15:33:32.571Z,16.63
2022-12-11T15:34:38.045Z,16.66
2022-12-11T15:35:50.883Z,16.64
2022-12-11T15:37:14.547Z,16.61
2022-12-11T15:38:17.337Z,16.56
2022-12-11T15:39:21.116Z,16.59
2022-12-11T15:40:33.917Z,16.6
2022-12-11T15:41:47.535Z,16.59
2022-12-11T15:42:50.518Z,16.59
2022-12-11T15:44:04.081Z,16.54
2022-12-11T15:45:16.861Z,16.57
2022-12-11T15:46:20.666Z,16.57
2022-12-11T15:47:33.574Z,16.54
2022-12-11T15:48:47.593Z,16.52
2022-12-11T15:49:50.460Z,16.54
2022-12-11T15:51:04.154Z,16.54
2022-12-11T15:52:16.931Z,16.52
2022-12-11T15:53:30.554Z,16.52
2022-12-11T15:54:43.333Z,16.53
2022-12-11T15:55:47.089Z,16.52
2022-12-11T15:56:59.873Z,16.53
2022-12-11T15:58:03.743Z,16.49
2022-12-11T15:59:16.495Z,16.5
2022-12-11T16:00:40.022Z,16.5
2022-12-11T16:01:43.044Z,16.49
2022-12-11T16:02:46.638Z,16.5
2022-12-11T16:04:03.319Z,16.5
2022-12-11T16:05:08.667Z,16.52
2022-12-11T16:06:21.521Z,16.49
2022-12-11T16:07:35.121Z,16.53
2022-12-11T16:08:37.977Z,16.52
2022-12-11T16:09:51.545Z,16.52
2022-12-11T16:11:04.328Z,16.5
2022-12-11T16:12:08.037Z,16.49
2022-12-11T16:13:21.423Z,16.5
2022-12-11T16:14:35.064Z,16.5
2022-12-11T16:15:37.927Z,16.47
2022-12-11T16:16:52.080Z,16.49
2022-12-11T16:18:15.031Z,16.46
2022-12-11T16:19:09.068Z,16.47
2022-12-11T16:20:21.833Z,16.49
2022-12-11T16:21:35.550Z,16.47
2022-12-11T16:22:38.337Z,16.47
2022-12-11T16:23:52.064Z,16.49
2022-12-11T16:25:04.947Z,16.49
2022-12-11T16:26:18.590Z,16.47
2022-12-11T16:27:23.251Z,16.45
2022-12-11T16:28:38.042Z,16.47
2022-12-11T16:29:40.824Z,16.49
2022-12-11T16:30:54.574Z,16.46
2022-12-11T16:32:07.950Z,16.46
2022-12-11T16:33:13.106Z,16.49
2022-12-11T16:34:26.456Z,16.46
2022-12-11T16:36:00.333Z,16.45
2022-12-11T16:36:43.198Z,16.45
2022-12-11T16:37:55.958Z,16.45
2022-12-11T16:39:10.179Z,16.45
2022-12-11T16:40:22.951Z,16.49
2022-12-11T16:41:26.549Z,16.47
2022-12-11T16:42:39.286Z,16.49
2022-12-11T16:43:53.078Z,16.5
2022-12-11T16:45:05.891Z,16.5
2022-12-11T16:46:09.609Z,16.47
2022-12-11T16:47:22.552Z,16.49
2022-12-11T16:48:26.733Z,16.47
2022-12-11T16:49:39.501Z,16.5
2022-12-11T16:51:13.606Z,16.5
2022-12-11T16:51:56.718Z,16.5
2022-12-11T16:53:09.525Z,16.49
2022-12-11T16:54:25.572Z,16.5
2022-12-11T16:55:28.388Z,16.52
2022-12-11T16:56:42.054Z,16.52
2022-12-11T16:57:54.814Z,16.53
2022-12-11T16:58:58.581Z,16.53
2022-12-11T17:00:11.336Z,16.63
2022-12-11T17:01:25.122Z,16.71
2022-12-11T17:02:27.914Z,16.85
2022-12-11T17:03:41.561Z,16.98
2022-12-11T17:04:55.298Z,17.08
2022-12-11T17:06:09.035Z,17.2
2022-12-11T17:07:11.669Z,17.34
2022-12-11T17:08:25.276Z,17.43
2022-12-11T17:09:27.991Z,17.55
2022-12-11T17:10:41.600Z,17.63
2022-12-11T17:11:54.119Z,17.73
2022-12-11T17:13:07.623Z,17.83
2022-12-11T17:14:10.293Z,17.9
2022-12-11T17:15:23.596Z,17.97
2022-12-11T17:16:46.058Z,18.03
2022-12-11T17:17:59.588Z,18.1
2022-12-11T17:18:52.229Z,18.14
2022-12-11T17:20:05.554Z,18.22
2022-12-11T17:21:18.022Z,18.27
2022-12-11T17:22:21.602Z,18.31
2022-12-11T17:23:34.095Z,18.37
2022-12-11T17:24:47.559Z,18.4
2022-12-11T17:25:50.093Z,18.41
2022-12-11T17:27:03.552Z,18.5
2022-12-11T17:28:16.017Z,18.54
2022-12-11T17:29:49.623Z,18.53
2022-12-11T17:30:32.409Z,18.57
2022-12-11T17:31:44.830Z,18.55
2022-12-11T17:32:58.124Z,18.61
2022-12-11T17:34:00.750Z,18.62
2022-12-11T17:35:14.395Z,18.64
2022-12-11T17:36:27.048Z,18.66
2022-12-11T17:37:41.592Z,18.69
2022-12-11T17:38:44.133Z,18.71
2022-12-11T17:39:57.769Z,18.74
2022-12-11T17:41:00.286Z,18.77
2022-12-11T17:42:14.319Z,18.77
2022-12-11T17:43:26.788Z,18.77
2022-12-11T17:44:40.054Z,18.8
2022-12-11T17:47:11.328Z,18.82
2022-12-11T17:48:04.065Z,18.87
2022-12-11T17:49:17.443Z,18.85
2022-12-11T17:50:19.954Z,18.88
2022-12-11T17:51:33.476Z,18.91
2022-12-11T17:52:46.080Z,18.94
2022-12-11T17:53:59.464Z,18.94
2022-12-11T17:55:02.374Z,18.95
2022-12-11T17:56:15.515Z,18.95
2022-12-11T17:57:27.890Z,18.98
2022-12-11T17:58:31.440Z,18.98
2022-12-11T17:59:43.818Z,19.01
2022-12-11T18:00:57.515Z,19.01
2022-12-11T18:02:00.167Z,19.02
2022-12-11T18:03:13.571Z,19.05
2022-12-11T18:04:26.143Z,19.06
2022-12-11T18:05:39.462Z,19.05
2022-12-11T18:06:41.953Z,19.06
2022-12-11T18:07:57.905Z,19.08
2022-12-11T18:09:00.929Z,19.11
2022-12-11T18:10:14.507Z,19.11
2022-12-11T18:11:26.801Z,19.15
2022-12-11T18:12:39.965Z,19.15
2022-12-11T18:13:42.533Z,19.16
2022-12-11T18:14:55.975Z,19.16
2022-12-11T18:16:08.726Z,19.19
2022-12-11T18:17:11.932Z,19.19
2022-12-11T18:18:24.281Z,19.2
2022-12-11T18:19:41.475Z,19.19
2022-12-11T18:20:48.367Z,19.23
2022-12-11T18:21:52.021Z,19.22
2022-12-11T18:23:04.403Z,19.26
2022-12-11T18:24:17.522Z,19.25
2022-12-11T18:25:20.024Z,19.26
2022-12-11T18:26:33.459Z,19.29
2022-12-11T18:27:55.812Z,19.29
2022-12-11T18:28:59.447Z,19.27
2022-12-11T18:30:01.926Z,19.29
2022-12-11T18:31:15.728Z,19.33
2022-12-11T18:32:28.300Z,19.33
2022-12-11T18:33:31.498Z,19.33
2022-12-11T18:34:43.897Z,19.38
2022-12-11T18:35:57.460Z,19.36
2022-12-11T18:37:10.227Z,19.39
2022-12-11T18:38:13.489Z,19.38
2022-12-11T18:39:25.916Z,19.38
2022-12-11T18:40:38.981Z,19.36
2022-12-11T18:41:41.587Z,19.38
2022-12-11T18:42:55.212Z,19.38
2022-12-11T18:44:09.985Z,19.38
2022-12-11T18:45:14.283Z,19.39
2022-12-11T18:46:26.903Z,19.39
2022-12-11T18:47:40.021Z,19.4
2022-12-11T18:48:42.490Z,19.38
2022-12-11T18:49:55.579Z,19.38
2022-12-11T18:51:07.896Z,19.36
2022-12-11T18:52:10.959Z,19.39
2022-12-11T18:53:23.370Z,19.39
2022-12-11T18:54:36.484Z,19.38
2022-12-11T18:55:48.889Z,19.38
2022-12-11T18:56:52.468Z,19.38
2022-12-11T18:58:04.911Z,19.38
2022-12-11T18:59:18.478Z,19.38
2022-12-11T19:00:21.040Z,19.38
2022-12-11T19:01:35.016Z,19.38
2022-12-11T19:02:47.389Z,19.38
2022-12-11T19:03:50.468Z,19.39
2022-12-11T19:05:02.835Z,19.36
2022-12-11T19:06:15.987Z,19.38
2022-12-11T19:07:28.356Z,19.38
2022-12-11T19:08:31.494Z,19.38
2022-12-11T19:09:48.026Z,19.38
2022-12-11T19:10:51.982Z,19.38
2022-12-11T19:12:04.331Z,19.36
2022-12-11T19:13:17.474Z,19.38
2022-12-11T19:14:20.005Z,19.36
2022-12-11T19:15:33.474Z,19.35
2022-12-11T19:16:45.823Z,19.38
2022-12-11T19:17:59.509Z,19.36
2022-12-11T19:19:01.977Z,19.38
2022-12-11T19:20:40.168Z,19.39
2022-12-11T19:21:20.599Z,19.38
2022-12-11T19:22:32.960Z,19.39
2022-12-11T19:23:45.991Z,19.38
2022-12-11T19:24:58.157Z,19.38
2022-12-11T19:26:21.485Z,19.39
2022-12-11T19:27:14.279Z,19.39
2022-12-11T19:28:27.478Z,19.39
2022-12-11T19:29:29.941Z,19.39
2022-12-11T19:30:42.992Z,19.4
2022-12-11T19:31:55.381Z,19.4
2022-12-11T19:33:08.504Z,19.4
2022-12-11T19:34:10.946Z,19.4
2022-12-11T19:35:24.003Z,19.4
2022-12-11T19:36:36.367Z,19.42
2022-12-11T19:37:49.488Z,19.42
2022-12-11T19:38:52.024Z,19.42
2022-12-11T19:40:06.508Z,19.4
2022-12-11T19:41:18.954Z,19.4
2022-12-11T19:42:22.477Z,19.4
2022-12-11T19:43:34.938Z,19.36
2022-12-11T19:44:48.502Z,19.29
2022-12-11T19:45:51.062Z,19.15
2022-12-11T19:47:04.519Z,19.05
2022-12-11T19:48:17.240Z,18.95
2022-12-11T19:49:20.495Z,18.81
2022-12-11T19:50:33.075Z,18.68
2022-12-11T19:51:46.467Z,18.58
2022-12-11T19:52:59.078Z,18.45
2022-12-11T19:54:02.490Z,18.36
2022-12-11T19:55:15.236Z,18.24
2022-12-11T19:56:29.083Z,18.19
2022-12-11T19:57:31.751Z,18.09
2022-12-11T19:58:45.503Z,18.02
2022-12-11T19:59:58.298Z,17.93
2022-12-11T20:01:02.543Z,17.87
2022-12-11T20:02:16.683Z,17.82
2022-12-11T20:03:20.478Z,17.72
2022-12-11T20:04:33.147Z,17.68
2022-12-11T20:05:46.489Z,17.63
2022-12-11T20:06:49.333Z,17.58
2022-12-11T20:08:35.250Z,17.54
2022-12-11T20:09:16.324Z,17.51
2022-12-11T20:10:19.193Z,17.48
2022-12-11T20:11:32.989Z,17.46
2022-12-11T20:12:45.756Z,17.45
2022-12-11T20:13:59.476Z,17.39
2022-12-11T20:15:02.244Z,17.39
2022-12-11T20:16:16.050Z,17.36
2022-12-11T20:17:28.976Z,17.32
2022-12-11T20:18:32.518Z,17.29
2022-12-11T20:19:45.336Z,17.28
2022-12-11T20:20:59.059Z,17.27
2022-12-11T20:22:01.856Z,17.24
2022-12-11T20:23:15.575Z,17.21
2022-12-11T20:24:28.306Z,17.18
2022-12-11T20:25:31.976Z,17.18
2022-12-11T20:26:44.759Z,17.17
2022-12-11T20:27:58.520Z,17.14
2022-12-11T20:29:01.569Z,17.12
2022-12-11T20:30:17.222Z,17.14
2022-12-11T20:31:30.054Z,17.11
2022-12-11T20:32:33.966Z,17.08
2022-12-11T20:33:56.688Z,17.1
2022-12-11T20:35:01.090Z,17.08
2022-12-11T20:36:03.937Z,17.07
2022-12-11T20:37:18.020Z,17.07
2022-12-11T20:38:34.422Z,17.05
2022-12-11T20:39:38.488Z,17.04
2022-12-11T20:40:51.506Z,17.05
2022-12-11T20:41:55.466Z,17.05
2022-12-11T20:43:48.348Z,17.04
2022-12-11T20:44:22.057Z,17.01
2022-12-11T20:45:25.027Z,17.07
2022-12-11T20:46:39.020Z,17.04
2022-12-11T20:47:51.864Z,17.03
2022-12-11T20:48:55.570Z,17.04
2022-12-11T20:50:08.318Z,17.04
2022-12-11T20:51:25.677Z,17.03
2022-12-11T20:52:28.997Z,17.04
2022-12-11T20:53:42.552Z,17.0
2022-12-11T20:54:45.455Z,17.0
2022-12-11T20:56:01.239Z,17.01
2022-12-11T20:57:34.209Z,16.98
2022-12-11T20:58:27.995Z,16.97
2022-12-11T20:59:30.852Z,16.96
2022-12-11T21:00:44.624Z,17.0
2022-12-11T21:01:47.691Z,16.96
2022-12-11T21:03:02.020Z,16.97
2022-12-11T21:04:15.377Z,16.96
2022-12-11T21:05:20.048Z,16.97
2022-12-11T21:06:32.850Z,16.96
2022-12-11T21:07:46.581Z,16.98
2022-12-11T21:08:50.360Z,16.97
2022-12-11T21:10:04.337Z,16.93
2022-12-11T21:11:07.179Z,16.93
2022-12-11T21:12:24.568Z,16.94
2022-12-11T21:13:31.202Z,16.91
2022-12-11T21:14:46.499Z,16.93
2022-12-11T21:15:49.493Z,16.9
2022-12-11T21:17:03.024Z,16.9
2022-12-11T21:18:15.922Z,16.88
2022-12-11T21:19:30.065Z,16.87
2022-12-11T21:20:32.885Z,16.9
2022-12-11T21:21:46.519Z,16.84
2022-12-11T21:22:49.335Z,16.87
2022-12-11T21:24:03.020Z,16.82
2022-12-11T21:25:16.486Z,16.87
2022-12-11T21:26:20.101Z,16.85
2022-12-11T21:27:32.983Z,16.87
2022-12-11T21:28:56.523Z,16.84
2022-12-11T21:29:49.396Z,16.85
2022-12-11T21:31:03.490Z,16.82
2022-12-11T21:32:16.301Z,16.84
2022-12-11T21:33:20.064Z,16.85
2022-12-11T21:34:32.892Z,16.85
2022-12-11T21:35:46.559Z,16.85
2022-12-11T21:36:49.852Z,16.82
2022-12-11T21:38:03.555Z,16.84
2022-12-11T21:39:16.307Z,16.82
2022-12-11T21:40:30.011Z,16.84
2022-12-11T21:41:32.865Z,16.81
2022-12-11T21:42:57.076Z,16.82
2022-12-11T21:44:56.575Z,16.8
2022-12-11T21:45:59.938Z,16.81
2022-12-11T21:46:24.436Z,16.84
2022-12-11T21:47:27.211Z,16.87
2022-12-11T21:48:41.070Z,16.9
2022-12-11T21:49:43.912Z,16.88
2022-12-11T21:50:57.533Z,16.91
2022-12-11T21:52:10.260Z,16.91
2022-12-11T21:53:14.075Z,16.9
2022-12-11T21:54:37.024Z,16.9
2022-12-11T21:55:50.560Z,16.87
2022-12-11T21:58:11.446Z,16.85
2022-12-11T21:59:04.331Z,16.85
2022-12-11T22:00:18.567Z,16.85
2022-12-11T22:01:51.506Z,16.84
2022-12-11T22:02:55.510Z,16.84
2022-12-11T22:03:48.420Z,16.84
2022-12-11T22:05:02.455Z,16.85
2022-12-11T22:06:05.498Z,16.84
2022-12-11T22:07:21.449Z,16.85
2022-12-11T22:08:24.353Z,16.84
2022-12-11T22:09:37.966Z,16.85
2022-12-11T22:10:51.737Z,16.82
2022-12-11T22:11:58.637Z,16.82
2022-12-11T22:13:21.680Z,16.81
2022-12-11T22:14:15.822Z,16.81
2022-12-11T22:15:29.112Z,16.8
2022-12-11T22:16:43.123Z,16.77
2022-12-11T22:17:45.996Z,16.77
2022-12-11T22:18:59.947Z,16.76
2022-12-11T22:20:12.755Z,16.76
2022-12-11T22:21:16.565Z,16.74
2022-12-11T22:22:29.355Z,16.73
2022-12-11T22:23:42.937Z,16.73
2022-12-11T22:24:45.762Z,16.7
2022-12-11T22:25:59.462Z,16.69
2022-12-11T22:27:32.269Z,16.71
2022-12-11T22:28:36.062Z,16.69
2022-12-11T22:29:29.099Z,16.67
2022-12-11T22:30:43.012Z,16.7
2022-12-11T22:31:46.113Z,16.67
2022-12-11T22:32:59.969Z,16.7
2022-12-11T22:34:12.750Z,16.69
2022-12-11T22:35:36.946Z,16.69
2022-12-11T22:36:49.947Z,16.7
2022-12-11T22:37:44.017Z,16.7
2022-12-11T22:38:46.892Z,16.71
2022-12-11T22:40:20.974Z,16.71
2022-12-11T22:41:20.460Z,16.7
2022-12-11T22:42:25.961Z,16.71
2022-12-11T22:43:29.001Z,16.71
2022-12-11T22:44:42.977Z,16.71
2022-12-11T22:45:55.783Z,16.73
2022-12-11T22:46:59.520Z,16.7
2022-12-11T22:48:12.334Z,16.73
2022-12-11T22:49:35.997Z,16.7
2022-12-11T22:50:28.946Z,16.69
2022-12-11T22:51:42.457Z,16.69
2022-12-11T22:52:55.379Z,16.69
2022-12-11T22:53:58.990Z,16.66
2022-12-11T22:55:11.996Z,16.66
2022-12-11T22:56:25.966Z,16.66
2022-12-11T22:57:28.783Z,16.66
2022-12-11T22:58:42.515Z,16.64
2022-12-11T22:59:55.319Z,16.64
2022-12-11T23:00:58.944Z,16.66
2022-12-11T23:02:12.115Z,16.64
2022-12-11T23:03:25.977Z,16.61
2022-12-11T23:04:28.840Z,16.61
2022-12-11T23:05:42.453Z,16.61
2022-12-11T23:06:55.363Z,16.64
2022-12-11T23:08:09.344Z,16.6
2022-12-11T23:09:12.194Z,16.61
2022-12-11T23:10:26.122Z,16.6
2022-12-11T23:11:38.950Z,16.63
2022-12-11T23:12:42.928Z,16.63
2022-12-11T23:13:55.754Z,16.63
2022-12-11T23:15:09.678Z,16.6
2022-12-11T23:16:12.739Z,16.61
2022-12-11T23:17:26.479Z,16.61
2022-12-11T23:18:39.262Z,16.59
2022-12-11T23:19:42.963Z,16.6
2022-12-11T23:20:55.856Z,16.59
2022-12-11T23:22:09.456Z,16.6
2022-12-11T23:23:12.288Z,16.6
2022-12-11T23:24:26.447Z,16.56
2022-12-11T23:25:39.311Z,16.6
2022-12-11T23:26:43.118Z,16.59
2022-12-11T23:27:55.913Z,16.56
2022-12-11T23:29:09.650Z,16.56
2022-12-11T23:30:12.624Z,16.56
2022-12-11T23:31:26.606Z,16.54
2022-12-11T23:32:39.767Z,16.57
2022-12-11T23:33:53.502Z,16.54
2022-12-11T23:34:56.743Z,16.56
2022-12-11T23:36:10.469Z,16.59